createdAt,value
2019-05-26T00:01:12.919Z,11.11
2019-05-26T00:03:19.393Z,11.17
2019-05-26T00:05:26.751Z,11.20
2019-05-26T00:07:33.125Z,11.08
2019-05-26T00:09:39.526Z,11.08
2019-05-26T00:11:46.470Z,10.95
2019-05-26T00:13:54.270Z,10.91
2019-05-26T00:16:00.850Z,10.82
2019-05-26T00:18:07.200Z,10.85
2019-05-26T00:20:14.669Z,10.98
2019-05-26T00:22:23.513Z,11.08
2019-05-26T00:24:29.865Z,11.12
2019-05-26T00:26:36.092Z,11.18
2019-05-26T00:28:42.790Z,11.19
2019-05-26T00:30:49.190Z,11.44
2019-05-26T00:32:56.128Z,11.33
2019-05-26T00:35:02.400Z,11.20
2019-05-26T00:37:08.957Z,11.29
2019-05-26T00:39:15.328Z,11.16
2019-05-26T00:41:21.765Z,11.02
2019-05-26T00:43:32.346Z,11.05
2019-05-26T00:45:39.029Z,11.05
2019-05-26T00:47:45.786Z,11.05
2019-05-26T00:49:52.165Z,11.12
2019-05-26T00:51:58.529Z,11.40
2019-05-26T00:54:05.072Z,11.40
2019-05-26T00:56:11.959Z,11.62
2019-05-26T00:58:18.215Z,11.56
2019-05-26T01:00:44.839Z,11.53
2019-05-26T01:02:51.132Z,11.66
2019-05-26T01:04:57.660Z,11.55
2019-05-26T01:07:05.156Z,11.62
2019-05-26T01:09:11.850Z,11.59
2019-05-26T01:11:19.450Z,11.56
2019-05-26T01:13:25.720Z,11.75
2019-05-26T01:15:32.884Z,11.75
2019-05-26T01:17:39.344Z,11.72
2019-05-26T01:19:45.702Z,11.75
2019-05-26T01:21:53.791Z,11.84
2019-05-26T01:24:00.475Z,11.90
2019-05-26T01:26:08.401Z,11.83
2019-05-26T01:28:14.614Z,11.91
2019-05-26T01:30:24.803Z,11.84
2019-05-26T01:32:31.256Z,12.09
2019-05-26T01:34:37.519Z,11.99
2019-05-26T01:36:43.979Z,11.94
2019-05-26T01:38:52.244Z,12.12
2019-05-26T01:40:58.557Z,12.22
2019-05-26T01:43:05.102Z,12.20
2019-05-26T01:45:12.116Z,12.17
2019-05-26T01:47:18.463Z,12.17
2019-05-26T01:49:24.717Z,12.19
2019-05-26T01:51:31.092Z,12.25
2019-05-26T01:53:37.646Z,12.54
2019-05-26T01:55:44.013Z,12.51
2019-05-26T01:57:50.382Z,12.66
2019-05-26T01:59:58.436Z,12.52
2019-05-26T02:02:05.269Z,12.39
2019-05-26T02:04:13.046Z,12.31
2019-05-26T02:06:19.820Z,12.21
2019-05-26T02:08:38.440Z,12.25
2019-05-26T02:10:34.082Z,12.20
2019-05-26T02:12:40.439Z,12.21
2019-05-26T02:14:46.906Z,12.28
2019-05-26T02:16:53.154Z,12.22
2019-05-26T02:18:59.528Z,12.14
2019-05-26T02:21:06.074Z,12.12
2019-05-26T02:23:13.271Z,12.04
2019-05-26T02:25:20.935Z,12.04
2019-05-26T02:27:27.346Z,12.13
2019-05-26T02:29:33.610Z,12.12
2019-05-26T02:31:39.867Z,12.07
2019-05-26T02:33:46.449Z,12.03
2019-05-26T02:35:52.715Z,12.01
2019-05-26T02:37:59.132Z,12.03
2019-05-26T02:40:08.774Z,12.05
2019-05-26T02:42:19.779Z,12.05
2019-05-26T02:44:26.951Z,12.10
2019-05-26T02:46:34.035Z,12.14
2019-05-26T02:48:40.414Z,12.26
2019-05-26T02:50:46.751Z,12.29
2019-05-26T02:52:53.290Z,12.30
2019-05-26T02:54:59.587Z,12.34
2019-05-26T02:57:05.951Z,12.38
2019-05-26T02:59:12.533Z,12.34
2019-05-26T03:01:19.877Z,12.32
2019-05-26T03:03:26.778Z,12.36
2019-05-26T03:05:34.048Z,12.35
2019-05-26T03:07:43.952Z,12.39
2019-05-26T03:09:51.906Z,12.46
2019-05-26T03:12:00.704Z,12.54
2019-05-26T03:14:07.601Z,12.52
2019-05-26T03:16:18.546Z,12.51
2019-05-26T03:18:24.807Z,12.51
2019-05-26T03:20:35.614Z,12.51
2019-05-26T03:22:47.881Z,12.48
2019-05-26T03:24:55.168Z,12.42
2019-05-26T03:27:01.980Z,12.38
2019-05-26T03:29:08.296Z,12.40
2019-05-26T03:31:14.799Z,12.39
2019-05-26T03:33:22.261Z,12.40
2019-05-26T03:35:29.653Z,12.49
2019-05-26T03:37:35.902Z,12.68
2019-05-26T03:39:45.965Z,12.73
2019-05-26T03:41:51.279Z,12.73
2019-05-26T03:43:57.555Z,12.92
2019-05-26T03:46:20.407Z,13.01
2019-05-26T03:48:27.273Z,13.01
2019-05-26T03:50:33.564Z,13.05
2019-05-26T03:52:39.895Z,13.04
2019-05-26T03:54:46.175Z,13.26
2019-05-26T03:56:53.251Z,13.30
2019-05-26T03:58:59.801Z,13.21
2019-05-26T04:01:06.603Z,13.32
2019-05-26T04:03:12.937Z,13.55
2019-05-26T04:05:19.217Z,13.46
2019-05-26T04:07:29.071Z,13.59
2019-05-26T04:09:38.496Z,13.45
2019-05-26T04:11:44.728Z,13.62
2019-05-26T04:13:51.940Z,13.56
2019-05-26T04:15:58.404Z,13.76
2019-05-26T04:18:04.964Z,13.76
2019-05-26T04:20:11.492Z,13.70
2019-05-26T04:22:17.776Z,13.64
2019-05-26T04:24:24.352Z,13.69
2019-05-26T04:26:30.834Z,13.80
2019-05-26T04:34:56.081Z,14.02
2019-05-26T04:37:02.333Z,14.06
2019-05-26T04:39:09.203Z,14.07
2019-05-26T04:41:15.468Z,14.15
2019-05-26T04:43:21.811Z,14.11
2019-05-26T04:47:33.421Z,14.18
2019-05-26T04:49:40.856Z,14.15
2019-05-26T04:51:47.166Z,14.04
2019-05-26T04:53:53.528Z,14.00
2019-05-26T04:56:00.097Z,14.06
2019-05-26T04:58:07.894Z,14.09
2019-05-26T05:00:16.001Z,14.08
2019-05-26T05:02:22.265Z,14.22
2019-05-26T05:04:28.728Z,14.41
2019-05-26T05:06:35.085Z,14.44
2019-05-26T05:08:41.564Z,14.43
2019-05-26T05:10:47.916Z,14.44
2019-05-26T05:12:54.373Z,14.47
2019-05-26T05:15:02.478Z,14.53
2019-05-26T05:17:09.265Z,14.63
2019-05-26T05:19:15.612Z,14.78
2019-05-26T05:21:22.181Z,14.84
2019-05-26T05:23:28.544Z,14.86
2019-05-26T05:25:36.448Z,15.03
2019-05-26T05:27:42.895Z,15.11
2019-05-26T05:29:49.291Z,14.98
2019-05-26T05:31:55.541Z,15.05
2019-05-26T05:34:01.781Z,15.11
2019-05-26T05:36:08.058Z,15.07
2019-05-26T05:38:15.332Z,15.11
2019-05-26T05:40:22.105Z,15.17
2019-05-26T05:42:28.342Z,15.45
2019-05-26T05:44:34.719Z,15.66
2019-05-26T05:46:40.984Z,15.73
2019-05-26T05:48:47.249Z,15.75
2019-05-26T05:50:53.500Z,15.61
2019-05-26T05:52:59.784Z,15.71
2019-05-26T05:55:08.385Z,15.57
2019-05-26T05:57:14.636Z,15.55
2019-05-26T05:59:21.814Z,15.76
2019-05-26T06:01:28.095Z,15.77
2019-05-26T06:03:34.548Z,15.83
2019-05-26T06:05:40.915Z,16.15
2019-05-26T06:07:48.740Z,16.42
2019-05-26T06:09:55.215Z,16.61
2019-05-26T06:12:01.537Z,16.71
2019-05-26T06:14:07.794Z,16.52
2019-05-26T06:16:14.245Z,16.61
2019-05-26T06:18:20.837Z,16.58
2019-05-26T06:20:27.090Z,16.50
2019-05-26T06:22:33.363Z,16.41
2019-05-26T06:24:39.919Z,16.36
2019-05-26T06:26:46.260Z,16.35
2019-05-26T06:28:52.876Z,16.56
2019-05-26T06:30:59.212Z,16.59
2019-05-26T06:33:05.683Z,16.87
2019-05-26T06:35:12.995Z,16.75
2019-05-26T06:37:19.230Z,16.93
2019-05-26T06:39:25.887Z,17.09
2019-05-26T06:41:34.010Z,17.07
2019-05-26T06:43:40.693Z,16.77
2019-05-26T06:45:47.133Z,17.09
2019-05-26T06:47:54.937Z,16.99
2019-05-26T06:50:02.859Z,17.23
2019-05-26T06:52:09.385Z,17.13
2019-05-26T06:54:15.787Z,17.25
2019-05-26T06:56:22.125Z,17.34
2019-05-26T06:58:29.810Z,17.37
2019-05-26T07:00:36.205Z,17.93
2019-05-26T07:02:42.939Z,17.88
2019-05-26T07:04:49.525Z,17.73
2019-05-26T07:06:56.483Z,17.70
2019-05-26T07:09:02.957Z,17.44
2019-05-26T07:11:09.514Z,17.50
2019-05-26T07:13:15.906Z,17.43
2019-05-26T07:15:22.460Z,17.39
2019-05-26T07:17:29.331Z,17.58
2019-05-26T07:19:35.911Z,17.72
2019-05-26T07:21:42.580Z,17.68
2019-05-26T07:23:48.934Z,17.94
2019-05-26T07:25:55.195Z,17.87
2019-05-26T07:28:01.446Z,18.05
2019-05-26T07:30:09.626Z,18.15
2019-05-26T07:32:15.929Z,17.81
2019-05-26T07:34:22.301Z,18.04
2019-05-26T07:36:28.670Z,17.78
2019-05-26T07:38:35.224Z,17.73
2019-05-26T07:40:41.583Z,18.09
2019-05-26T07:42:48.958Z,18.18
2019-05-26T07:44:55.228Z,17.99
2019-05-26T07:47:01.505Z,17.64
2019-05-26T07:49:08.171Z,17.42
2019-05-26T07:51:14.627Z,17.56
2019-05-26T07:53:21.186Z,17.84
2019-05-26T07:55:27.435Z,17.92
2019-05-26T07:57:33.800Z,18.04
2019-05-26T07:59:40.285Z,18.16
2019-05-26T08:01:46.647Z,18.27
2019-05-26T08:03:53.589Z,18.58
2019-05-26T08:05:59.858Z,18.54
2019-05-26T08:08:12.598Z,18.59
2019-05-26T08:10:15.055Z,18.75
2019-05-26T08:12:26.164Z,18.39
2019-05-26T08:14:29.545Z,18.25
2019-05-26T08:16:35.793Z,18.13
2019-05-26T08:18:42.766Z,18.37
2019-05-26T08:20:49.021Z,18.69
2019-05-26T08:22:56.822Z,18.88
2019-05-26T08:25:03.375Z,19.08
2019-05-26T08:27:09.836Z,19.00
2019-05-26T08:29:17.635Z,18.97
2019-05-26T08:31:24.743Z,18.64
2019-05-26T08:33:31.195Z,18.81
2019-05-26T08:35:38.805Z,18.77
2019-05-26T08:37:46.591Z,18.87
2019-05-26T08:39:53.239Z,18.96
2019-05-26T08:41:59.819Z,18.73
2019-05-26T08:44:07.408Z,18.88
2019-05-26T08:46:15.505Z,18.38
2019-05-26T08:48:21.794Z,18.40
2019-05-26T08:50:28.220Z,18.23
2019-05-26T08:52:34.488Z,18.02
2019-05-26T08:54:40.849Z,17.84
2019-05-26T08:56:47.225Z,17.92
2019-05-26T08:58:53.581Z,18.05
2019-05-26T09:00:59.945Z,18.28
2019-05-26T09:03:06.329Z,18.43
2019-05-26T09:05:13.407Z,18.57
2019-05-26T09:07:21.285Z,18.67
2019-05-26T09:09:27.564Z,18.82
2019-05-26T09:11:38.028Z,18.71
2019-05-26T09:13:43.781Z,18.74
2019-05-26T09:15:50.315Z,18.77
2019-05-26T09:18:00.874Z,18.89
2019-05-26T09:20:11.753Z,18.89
2019-05-26T09:22:18.730Z,19.08
2019-05-26T09:24:25.141Z,19.19
2019-05-26T09:26:31.446Z,19.08
2019-05-26T09:28:39.373Z,19.27
2019-05-26T09:30:47.274Z,19.35
2019-05-26T09:32:55.340Z,19.20
2019-05-26T09:35:04.016Z,19.07
2019-05-26T09:37:10.400Z,19.10
2019-05-26T09:39:16.737Z,19.42
2019-05-26T09:41:24.495Z,19.61
2019-05-26T09:43:32.323Z,19.91
2019-05-26T09:45:40.120Z,19.56
2019-05-26T09:47:46.671Z,19.52
2019-05-26T09:49:53.733Z,19.68
2019-05-26T09:52:01.929Z,19.60
2019-05-26T09:54:12.520Z,19.69
2019-05-26T09:56:17.945Z,19.52
2019-05-26T09:58:24.299Z,19.28
2019-05-26T10:00:30.991Z,19.35
2019-05-26T10:02:37.480Z,19.72
2019-05-26T10:04:46.439Z,19.45
2019-05-26T10:06:54.363Z,19.31
2019-05-26T10:09:02.181Z,19.44
2019-05-26T10:11:08.923Z,19.80
2019-05-26T10:13:30.790Z,20.02
2019-05-26T10:15:26.267Z,19.91
2019-05-26T10:17:33.749Z,19.93
2019-05-26T10:19:40.003Z,20.30
2019-05-26T10:21:46.561Z,20.42
2019-05-26T10:23:53.352Z,20.01
2019-05-26T10:25:59.705Z,20.12
2019-05-26T10:28:05.980Z,19.85
2019-05-26T10:30:15.309Z,19.81
2019-05-26T10:32:21.867Z,19.82
2019-05-26T10:34:28.260Z,19.92
2019-05-26T10:36:34.507Z,20.20
2019-05-26T10:38:42.802Z,20.40
2019-05-26T10:40:49.064Z,20.36
2019-05-26T10:42:55.324Z,20.11
2019-05-26T10:45:02.190Z,19.98
2019-05-26T10:47:08.473Z,20.15
2019-05-26T10:49:14.744Z,20.18
2019-05-26T10:51:21.173Z,19.95
2019-05-26T10:53:28.889Z,20.33
2019-05-26T10:55:35.542Z,20.73
2019-05-26T10:57:42.024Z,20.64
2019-05-26T10:59:48.265Z,21.00
2019-05-26T11:01:55.254Z,21.21
2019-05-26T11:04:01.602Z,21.26
2019-05-26T11:06:08.182Z,20.65
2019-05-26T11:08:14.418Z,20.24
2019-05-26T11:10:21.543Z,20.16
2019-05-26T11:12:28.184Z,20.40
2019-05-26T11:14:34.449Z,20.52
2019-05-26T11:16:40.707Z,20.65
2019-05-26T11:18:47.291Z,21.01
2019-05-26T11:20:53.659Z,20.64
2019-05-26T11:23:00.247Z,20.87
2019-05-26T11:25:10.891Z,21.01
2019-05-26T11:27:19.931Z,20.69
2019-05-26T11:29:26.440Z,20.77
2019-05-26T11:31:32.924Z,20.93
2019-05-26T11:33:39.746Z,21.13
2019-05-26T11:35:46.265Z,20.92
2019-05-26T11:37:52.522Z,20.87
2019-05-26T11:40:00.328Z,20.99
2019-05-26T11:42:13.125Z,21.06
2019-05-26T11:44:18.319Z,21.11
2019-05-26T11:46:23.500Z,21.32
2019-05-26T11:48:29.770Z,21.33
2019-05-26T11:50:36.153Z,21.22
2019-05-26T11:52:42.413Z,21.18
2019-05-26T11:54:48.986Z,21.24
2019-05-26T11:56:55.234Z,21.10
2019-05-26T11:59:01.781Z,21.19
2019-05-26T12:01:08.139Z,21.03
2019-05-26T12:03:14.395Z,21.34
2019-05-26T12:05:20.864Z,21.38
2019-05-26T12:07:27.139Z,21.29
2019-05-26T12:09:35.070Z,21.28
2019-05-26T12:11:41.593Z,21.19
2019-05-26T12:13:47.980Z,21.47
2019-05-26T12:15:54.229Z,21.37
2019-05-26T12:18:00.904Z,21.45
2019-05-26T12:20:08.900Z,21.51
2019-05-26T12:22:15.380Z,21.50
2019-05-26T12:24:33.824Z,21.24
2019-05-26T12:26:40.080Z,20.73
2019-05-26T12:28:47.455Z,20.90
2019-05-26T12:30:55.161Z,20.79
2019-05-26T12:33:02.343Z,21.03
2019-05-26T12:35:10.523Z,21.27
2019-05-26T12:37:16.890Z,21.61
2019-05-26T12:39:23.142Z,21.64
2019-05-26T12:41:37.360Z,21.46
2019-05-26T12:43:45.725Z,21.51
2019-05-26T12:45:52.426Z,21.57
2019-05-26T12:47:58.950Z,21.46
2019-05-26T12:50:09.625Z,21.37
2019-05-26T12:52:16.193Z,21.26
2019-05-26T12:54:22.534Z,21.01
2019-05-26T12:56:28.894Z,20.89
2019-05-26T12:58:36.292Z,20.77
2019-05-26T13:00:48.704Z,20.81
2019-05-26T13:02:52.340Z,20.67
2019-05-26T13:04:59.211Z,20.63
2019-05-26T13:07:06.049Z,20.85
2019-05-26T13:09:13.945Z,20.93
2019-05-26T13:11:22.775Z,21.16
2019-05-26T13:13:28.624Z,21.19
2019-05-26T13:15:35.179Z,21.13
2019-05-26T13:17:42.569Z,21.25
2019-05-26T13:19:48.848Z,21.13
2019-05-26T13:21:55.919Z,21.22
2019-05-26T13:24:02.163Z,21.16
2019-05-26T13:26:08.432Z,21.22
2019-05-26T13:28:15.081Z,20.93
2019-05-26T13:30:24.832Z,20.81
2019-05-26T13:32:31.404Z,21.03
2019-05-26T13:34:38.692Z,21.25
2019-05-26T13:36:45.070Z,21.20
2019-05-26T13:38:51.301Z,21.29
2019-05-26T13:40:57.580Z,21.20
2019-05-26T13:43:04.128Z,21.39
2019-05-26T13:45:21.688Z,21.47
2019-05-26T13:47:26.247Z,21.52
2019-05-26T13:49:29.796Z,21.40
2019-05-26T13:51:37.067Z,21.44
2019-05-26T13:53:45.065Z,21.53
2019-05-26T13:55:51.313Z,21.65
2019-05-26T13:58:00.690Z,21.58
2019-05-26T14:00:16.439Z,21.68
2019-05-26T14:02:23.014Z,21.73
2019-05-26T14:04:29.577Z,21.44
2019-05-26T14:06:36.044Z,21.48
2019-05-26T14:08:42.400Z,21.60
2019-05-26T14:10:48.670Z,21.68
2019-05-26T14:12:55.142Z,21.38
2019-05-26T14:15:02.413Z,21.16
2019-05-26T14:17:08.670Z,21.32
2019-05-26T14:19:16.383Z,21.44
2019-05-26T14:21:22.730Z,21.44
2019-05-26T14:23:28.989Z,21.36
2019-05-26T14:25:35.870Z,21.28
2019-05-26T14:27:42.151Z,21.27
2019-05-26T14:29:48.510Z,21.28
2019-05-26T14:31:55.063Z,21.40
2019-05-26T14:34:01.742Z,21.27
2019-05-26T14:36:08.704Z,21.24
2019-05-26T14:38:16.601Z,21.10
2019-05-26T14:40:22.877Z,21.19
2019-05-26T14:42:29.139Z,21.26
2019-05-26T14:44:35.501Z,21.40
2019-05-26T14:46:42.157Z,21.58
2019-05-26T14:48:48.415Z,21.33
2019-05-26T14:50:54.881Z,21.39
2019-05-26T14:53:01.349Z,21.40
2019-05-26T14:55:09.313Z,21.25
2019-05-26T14:57:16.049Z,21.22
2019-05-26T14:59:22.349Z,21.12
2019-05-26T15:01:28.857Z,21.05
2019-05-26T15:03:35.115Z,21.11
2019-05-26T15:05:41.383Z,21.25
2019-05-26T15:07:48.042Z,21.35
2019-05-26T15:09:54.719Z,21.10
2019-05-26T15:12:00.978Z,21.06
2019-05-26T15:14:08.563Z,20.93
2019-05-26T15:16:15.273Z,21.02
2019-05-26T15:18:21.604Z,21.13
2019-05-26T15:20:28.391Z,21.22
2019-05-26T15:22:34.741Z,21.12
2019-05-26T15:24:41.586Z,21.14
2019-05-26T15:26:47.970Z,21.11
2019-05-26T15:28:54.227Z,21.19
2019-05-26T15:31:00.589Z,21.26
2019-05-26T15:33:08.497Z,21.23
2019-05-26T15:35:15.365Z,21.20
2019-05-26T15:37:21.733Z,21.14
2019-05-26T15:39:28.009Z,21.21
2019-05-26T15:41:36.943Z,21.23
2019-05-26T15:43:43.173Z,21.21
2019-05-26T15:45:49.546Z,21.28
2019-05-26T15:47:55.900Z,21.38
2019-05-26T15:50:02.164Z,21.33
2019-05-26T15:52:09.961Z,21.35
2019-05-26T15:54:16.210Z,21.31
2019-05-26T15:56:22.465Z,21.21
2019-05-26T15:58:28.737Z,21.26
2019-05-26T16:00:34.995Z,21.23
2019-05-26T16:02:41.973Z,21.47
2019-05-26T16:04:49.763Z,21.59
2019-05-26T16:06:56.337Z,21.73
2019-05-26T16:09:02.702Z,21.64
2019-05-26T16:11:10.098Z,21.60
2019-05-26T16:13:16.543Z,21.69
2019-05-26T16:15:23.175Z,21.79
2019-05-26T16:17:29.573Z,21.88
2019-05-26T16:19:38.200Z,21.89
2019-05-26T16:21:44.654Z,21.87
2019-05-26T16:23:51.020Z,21.81
2019-05-26T16:25:57.299Z,21.72
2019-05-26T16:28:04.972Z,21.52
2019-05-26T16:30:12.289Z,21.37
2019-05-26T16:32:19.093Z,21.24
2019-05-26T16:34:25.600Z,21.14
2019-05-26T16:36:31.852Z,21.13
2019-05-26T16:38:38.252Z,21.04
2019-05-26T16:40:45.131Z,21.06
2019-05-26T16:42:51.484Z,21.00
2019-05-26T16:44:58.135Z,20.92
2019-05-26T16:47:04.584Z,20.90
2019-05-26T16:49:10.864Z,20.92
2019-05-26T16:51:17.517Z,20.84
2019-05-26T16:53:23.926Z,20.82
2019-05-26T16:55:30.145Z,20.78
2019-05-26T16:57:36.722Z,20.82
2019-05-26T16:59:43.079Z,20.79
2019-05-26T17:01:49.524Z,20.76
2019-05-26T17:03:56.314Z,20.78
2019-05-26T17:06:08.200Z,20.81
2019-05-26T17:08:14.095Z,20.81
2019-05-26T17:10:21.084Z,20.80
2019-05-26T17:12:27.618Z,20.76
2019-05-26T17:14:34.066Z,20.75
2019-05-26T17:16:40.555Z,20.72
2019-05-26T17:18:46.947Z,20.68
2019-05-26T17:20:53.567Z,20.65
2019-05-26T17:23:00.335Z,20.66
2019-05-26T17:25:08.446Z,20.61
2019-05-26T17:27:14.887Z,20.53
2019-05-26T17:29:21.387Z,20.51
2019-05-26T17:31:27.875Z,20.47
2019-05-26T17:33:34.921Z,20.41
2019-05-26T17:35:41.300Z,20.36
2019-05-26T17:37:47.760Z,20.30
2019-05-26T17:39:54.017Z,20.24
2019-05-26T17:42:00.587Z,20.22
2019-05-26T17:44:07.869Z,20.17
2019-05-26T17:46:15.274Z,20.13
2019-05-26T17:48:21.836Z,20.07
2019-05-26T17:50:28.205Z,20.01
2019-05-26T17:52:34.577Z,19.96
2019-05-26T17:54:41.021Z,19.96
2019-05-26T17:56:47.374Z,19.95
2019-05-26T17:58:54.971Z,19.96
2019-05-26T18:01:01.333Z,19.95
2019-05-26T18:03:07.708Z,19.92
2019-05-26T18:05:18.294Z,19.92
2019-05-26T18:07:25.726Z,19.88
2019-05-26T18:09:43.709Z,19.86
2019-05-26T18:11:43.222Z,19.84
2019-05-26T18:13:49.556Z,19.80
2019-05-26T18:15:57.637Z,19.77
2019-05-26T18:18:05.441Z,19.75
2019-05-26T18:20:15.700Z,19.69
2019-05-26T18:22:22.324Z,19.63
2019-05-26T18:24:30.379Z,19.59
2019-05-26T18:26:37.031Z,19.54
2019-05-26T18:28:43.770Z,19.48
2019-05-26T18:30:50.072Z,19.42
2019-05-26T18:32:58.165Z,19.34
2019-05-26T18:35:06.807Z,19.28
2019-05-26T18:37:13.667Z,19.19
2019-05-26T18:39:20.644Z,19.10
2019-05-26T18:41:27.118Z,19.02
2019-05-26T18:43:33.936Z,18.93
2019-05-26T18:45:46.115Z,18.86
2019-05-26T18:48:03.084Z,18.76
2019-05-26T18:50:02.709Z,18.67
2019-05-26T18:52:11.452Z,18.58
2019-05-26T18:54:19.453Z,18.52
2019-05-26T18:56:27.652Z,18.46
2019-05-26T18:58:34.518Z,18.44
2019-05-26T19:00:41.070Z,18.40
2019-05-26T19:02:47.747Z,18.40
2019-05-26T19:04:54.476Z,18.35
2019-05-26T19:07:00.889Z,18.31
2019-05-26T19:09:10.720Z,18.26
2019-05-26T19:11:17.336Z,18.22
2019-05-26T19:13:25.377Z,18.20
2019-05-26T19:15:31.748Z,18.15
2019-05-26T19:17:40.091Z,18.12
2019-05-26T19:19:47.249Z,18.15
2019-05-26T19:21:53.960Z,18.14
2019-05-26T19:24:00.795Z,18.14
2019-05-26T19:26:07.765Z,18.10
2019-05-26T19:28:17.632Z,18.08
2019-05-26T19:30:24.629Z,18.06
2019-05-26T19:32:31.436Z,18.08
2019-05-26T19:34:40.377Z,18.06
2019-05-26T19:36:48.134Z,18.06
2019-05-26T19:38:54.864Z,18.04
2019-05-26T19:41:04.284Z,18.01
2019-05-26T19:43:12.487Z,18.01
2019-05-26T19:45:19.285Z,17.99
2019-05-26T19:47:25.622Z,17.94
2019-05-26T19:49:33.824Z,17.89
2019-05-26T19:51:41.935Z,17.86
2019-05-26T19:53:48.287Z,17.84
2019-05-26T19:55:56.487Z,17.84
2019-05-26T19:58:02.996Z,17.83
2019-05-26T20:00:19.368Z,17.83
2019-05-26T20:02:25.626Z,17.84
2019-05-26T20:04:32.301Z,17.86
2019-05-26T20:06:38.782Z,17.88
2019-05-26T20:08:46.583Z,17.87
2019-05-26T20:10:53.345Z,17.88
2019-05-26T20:13:00.601Z,17.88
2019-05-26T20:15:11.082Z,17.88
2019-05-26T20:17:23.182Z,17.90
2019-05-26T20:19:29.869Z,17.91
2019-05-26T20:21:37.655Z,17.89
2019-05-26T20:23:45.739Z,17.89
2019-05-26T20:25:52.218Z,17.88
2019-05-26T20:28:00.327Z,17.91
2019-05-26T20:30:09.443Z,17.91
2019-05-26T20:32:15.931Z,17.90
2019-05-26T20:34:23.588Z,17.89
2019-05-26T20:36:30.161Z,17.88
2019-05-26T20:38:37.124Z,17.89
2019-05-26T20:40:43.838Z,17.87
2019-05-26T20:42:53.137Z,17.85
2019-05-26T20:45:00.019Z,17.84
2019-05-26T20:47:06.730Z,17.81
2019-05-26T20:49:13.043Z,17.81
2019-05-26T20:51:20.833Z,17.82
2019-05-26T20:53:28.513Z,17.77
2019-05-26T20:55:35.425Z,17.77
2019-05-26T20:57:41.783Z,17.76
2019-05-26T20:59:49.777Z,17.75
2019-05-26T21:01:56.242Z,17.73
2019-05-26T21:04:04.773Z,17.70
2019-05-26T21:06:12.755Z,17.67
2019-05-26T21:08:20.646Z,17.66
2019-05-26T21:10:27.438Z,17.64
2019-05-26T21:12:35.008Z,17.63
2019-05-26T21:14:41.278Z,17.61
2019-05-26T21:16:49.706Z,17.58
2019-05-26T21:18:56.085Z,17.55
2019-05-26T21:21:05.443Z,17.53
2019-05-26T21:23:11.851Z,17.48
2019-05-26T21:25:18.610Z,17.46
2019-05-26T21:27:24.882Z,17.42
2019-05-26T21:29:31.237Z,17.37
2019-05-26T21:31:37.935Z,17.33
2019-05-26T21:33:45.629Z,17.32
2019-05-26T21:35:51.977Z,17.23
2019-05-26T21:37:58.603Z,17.18
2019-05-26T21:40:07.778Z,17.12
2019-05-26T21:42:16.033Z,17.07
2019-05-26T21:44:24.417Z,17.04
2019-05-26T21:46:30.651Z,16.99
2019-05-26T21:48:37.098Z,16.96
2019-05-26T21:50:45.096Z,16.90
2019-05-26T21:52:51.779Z,16.88
2019-05-26T21:54:59.872Z,16.84
2019-05-26T21:57:06.123Z,16.87
2019-05-26T21:59:12.408Z,16.85
2019-05-26T22:01:18.837Z,16.85
2019-05-26T22:03:25.111Z,16.84
2019-05-26T22:05:31.914Z,16.82
2019-05-26T22:07:38.142Z,16.81
2019-05-26T22:09:44.400Z,16.80
2019-05-26T22:11:50.658Z,16.78
2019-05-26T22:13:58.361Z,16.75
2019-05-26T22:16:06.299Z,16.77
2019-05-26T22:18:14.562Z,16.77
2019-05-26T22:20:21.118Z,16.74
2019-05-26T22:22:27.402Z,16.71
2019-05-26T22:24:33.637Z,16.69
2019-05-26T22:26:40.120Z,16.70
2019-05-26T22:28:46.357Z,16.70
2019-05-26T22:30:53.027Z,16.70
2019-05-26T22:32:59.411Z,16.71
2019-05-26T22:35:09.051Z,16.74
2019-05-26T22:37:15.298Z,16.74
2019-05-26T22:39:22.068Z,16.72
2019-05-26T22:41:28.332Z,16.70
2019-05-26T22:43:34.600Z,16.68
2019-05-26T22:45:40.855Z,16.69
2019-05-26T22:47:47.107Z,16.72
2019-05-26T22:49:53.374Z,16.72
2019-05-26T22:51:59.651Z,16.73
2019-05-26T22:54:05.919Z,16.70
2019-05-26T22:56:12.266Z,16.70
2019-05-26T22:58:18.524Z,16.69
2019-05-26T23:00:25.118Z,16.68
2019-05-26T23:02:31.994Z,16.68
2019-05-26T23:04:38.320Z,16.69
2019-05-26T23:06:44.577Z,16.68
2019-05-26T23:08:50.841Z,16.66
2019-05-26T23:10:57.318Z,16.63
2019-05-26T23:13:03.583Z,16.62
2019-05-26T23:15:13.172Z,16.57
2019-05-26T23:17:21.209Z,16.55
2019-05-26T23:19:27.689Z,16.52
2019-05-26T23:21:33.943Z,16.50
2019-05-26T23:23:40.197Z,16.48
2019-05-26T23:25:46.454Z,16.44
2019-05-26T23:27:52.820Z,16.39
2019-05-26T23:30:00.429Z,16.38
2019-05-26T23:32:06.675Z,16.34
2019-05-26T23:34:12.939Z,16.30
2019-05-26T23:36:19.203Z,16.28
2019-05-26T23:38:28.522Z,16.27
2019-05-26T23:40:34.785Z,16.29
2019-05-26T23:42:41.049Z,16.29
2019-05-26T23:44:47.404Z,16.31
2019-05-26T23:46:54.469Z,16.32
2019-05-26T23:49:02.790Z,16.35
2019-05-26T23:51:09.049Z,16.37
2019-05-26T23:53:15.312Z,16.41
2019-05-26T23:55:21.672Z,16.42
2019-05-26T23:57:27.951Z,16.45
2019-05-26T23:59:34.201Z,16.48
